createdAt,value
2023-03-06T10:34:31.008Z,26.37
2023-03-06T10:37:05.588Z,26.91
2023-03-06T10:39:35.307Z,25.91
2023-03-06T10:42:02.396Z,26.24
2023-03-06T10:44:30.420Z,26.57
2023-03-06T10:46:57.698Z,27.03
2023-03-06T10:49:24.668Z,26.26
2023-03-06T10:52:27.166Z,26.19
2023-03-06T10:55:34.903Z,26.00
2023-03-06T10:58:37.600Z,25.51
2023-03-06T11:01:11.834Z,25.71
2023-03-06T11:03:41.535Z,25.00
2023-03-06T11:06:31.400Z,25.32
2023-03-06T11:09:18.943Z,26.30
2023-03-06T11:11:46.088Z,25.88
2023-03-06T11:14:27.461Z,24.45
2023-03-06T11:16:54.947Z,24.90
2023-03-06T11:19:32.751Z,26.06
2023-03-06T11:22:19.647Z,25.56
2023-03-06T11:24:50.604Z,23.98
2023-03-06T11:27:23.932Z,23.83
2023-03-06T11:29:57.108Z,22.97
2023-03-06T11:32:47.298Z,22.47
2023-03-06T11:35:24.004Z,23.71
2023-03-06T11:38:07.023Z,23.49
2023-03-06T11:40:45.179Z,23.39
2023-03-06T11:43:32.497Z,22.81
2023-03-06T11:46:26.408Z,23.80
2023-03-06T11:49:29.686Z,23.45
2023-03-06T11:52:04.673Z,23.26
2023-03-06T11:54:34.741Z,23.03
2023-03-06T11:57:23.392Z,24.33
2023-03-06T12:00:17.689Z,24.07
2023-03-06T12:03:06.394Z,22.57
2023-03-06T12:06:09.456Z,21.96
2023-03-06T12:08:42.770Z,22.29
2023-03-06T12:11:31.593Z,21.97
2023-03-06T12:14:18.373Z,24.18
2023-03-06T12:17:08.079Z,23.73
2023-03-06T12:20:25.319Z,23.69
2023-03-06T12:22:57.771Z,24.45
2023-03-06T12:25:47.370Z,25.69
2023-03-06T12:28:33.091Z,25.59
2023-03-06T12:31:34.413Z,24.83
2023-03-06T12:34:44.010Z,24.84
2023-03-06T12:37:29.898Z,24.76
2023-03-06T12:40:27.253Z,24.91
2023-03-06T12:43:15.340Z,24.81
2023-03-06T12:45:44.418Z,25.09
2023-03-06T12:48:22.955Z,25.29
2023-03-06T12:50:51.176Z,25.10
2023-03-06T12:53:32.824Z,24.25
2023-03-06T12:56:02.742Z,25.10
2023-03-06T12:58:32.386Z,25.12
2023-03-06T13:01:33.851Z,25.72
2023-03-06T13:04:22.715Z,25.80
2023-03-06T13:07:53.185Z,25.81
2023-03-06T13:10:26.018Z,25.68
2023-03-06T13:13:15.059Z,26.33
2023-03-06T13:15:43.595Z,26.18
2023-03-06T13:18:22.853Z,26.03
2023-03-06T13:20:54.702Z,26.53
2023-03-06T13:23:33.505Z,27.34
2023-03-06T13:26:04.372Z,26.85
2023-03-06T13:28:47.700Z,27.25
2023-03-06T13:31:38.146Z,27.22
2023-03-06T13:34:52.054Z,27.31
2023-03-06T13:37:25.023Z,27.84
2023-03-06T13:40:00.655Z,27.84
2023-03-06T13:42:36.588Z,26.37
2023-03-06T13:45:23.960Z,27.25
2023-03-06T13:48:33.752Z,27.24
2023-03-06T13:50:46.508Z,27.42
2023-03-06T13:53:42.597Z,27.50
2023-03-06T13:56:44.935Z,26.74
2023-03-06T13:59:45.301Z,27.02
2023-03-06T14:02:52.868Z,27.81
2023-03-06T14:05:22.691Z,28.19
2023-03-06T14:08:13.939Z,27.86
2023-03-06T14:10:42.112Z,28.53
2023-03-06T14:13:32.092Z,28.98
2023-03-06T14:16:02.322Z,28.88
2023-03-06T14:18:43.095Z,28.18
2023-03-06T14:21:16.022Z,27.80
2023-03-06T14:23:47.382Z,28.94
2023-03-06T14:26:31.956Z,27.99
2023-03-06T14:29:02.886Z,29.29
2023-03-06T14:31:43.315Z,28.63
2023-03-06T14:34:41.052Z,28.72
2023-03-06T14:37:25.217Z,28.79
2023-03-06T14:39:56.423Z,28.81
2023-03-06T14:42:31.703Z,28.79
2023-03-06T14:45:20.842Z,28.60
2023-03-06T14:47:53.272Z,29.86
2023-03-06T14:50:23.828Z,28.80
2023-03-06T14:53:28.366Z,29.17
2023-03-06T14:56:00.464Z,30.39
2023-03-06T14:58:45.147Z,30.58
2023-03-06T15:01:14.739Z,30.98
2023-03-06T15:03:53.325Z,29.63
2023-03-06T15:06:29.199Z,30.66
2023-03-06T15:09:34.040Z,30.60
2023-03-06T15:12:02.620Z,29.81
2023-03-06T15:14:38.753Z,30.45
2023-03-06T15:17:18.369Z,29.61
2023-03-06T15:19:48.572Z,29.49
2023-03-06T15:22:40.138Z,31.09
2023-03-06T15:25:32.149Z,29.24
2023-03-06T15:28:24.019Z,28.89
2023-03-06T15:31:21.808Z,27.89
2023-03-06T15:34:02.751Z,28.37
2023-03-06T15:36:33.921Z,28.74
2023-03-06T15:39:01.245Z,28.34
2023-03-06T15:41:42.128Z,29.09
2023-03-06T15:44:14.011Z,28.65
2023-03-06T15:46:42.199Z,27.98
2023-03-06T15:49:18.706Z,28.04
2023-03-06T15:51:45.979Z,28.23
2023-03-06T15:54:14.436Z,27.86
2023-03-06T15:56:44.919Z,28.26
2023-03-06T15:59:23.284Z,27.64
2023-03-06T16:01:51.019Z,28.36
2023-03-06T16:04:19.940Z,27.97
2023-03-06T16:06:47.145Z,27.60
2023-03-06T16:09:14.888Z,29.40
2023-03-06T16:11:44.961Z,28.43
2023-03-06T16:14:23.917Z,28.24
2023-03-06T16:16:54.299Z,27.92
2023-03-06T16:19:26.759Z,28.08
2023-03-06T16:21:56.526Z,30.23
2023-03-06T16:24:26.222Z,27.91
2023-03-06T16:26:59.064Z,28.78
2023-03-06T16:29:28.141Z,28.79
2023-03-06T16:31:57.754Z,27.97
2023-03-06T16:34:25.323Z,28.79
2023-03-06T16:36:52.656Z,27.65
2023-03-06T16:39:22.998Z,27.60
2023-03-06T16:41:51.129Z,28.06
2023-03-06T16:44:18.915Z,27.05
2023-03-06T16:46:49.344Z,27.38
2023-03-06T16:49:22.244Z,27.65
2023-03-06T16:51:49.907Z,27.71
2023-03-06T16:54:17.680Z,27.08
2023-03-06T16:56:45.203Z,27.25
2023-03-06T16:59:12.821Z,26.87
2023-03-06T17:01:44.603Z,27.13
2023-03-06T17:04:11.952Z,26.91
2023-03-06T17:06:39.971Z,27.16
2023-03-06T17:09:07.537Z,27.13
2023-03-06T17:11:38.838Z,26.59
2023-03-06T17:14:07.015Z,26.85
2023-03-06T17:16:34.695Z,28.83
2023-03-06T17:19:02.542Z,27.59
2023-03-06T17:21:30.455Z,27.88
2023-03-06T17:23:57.783Z,28.01
2023-03-06T17:26:30.729Z,28.78
2023-03-06T17:28:57.941Z,28.94
2023-03-06T17:31:29.404Z,28.64
2023-03-06T17:34:00.579Z,28.45
2023-03-06T17:36:31.592Z,28.62
2023-03-06T17:39:01.960Z,28.57
2023-03-06T17:41:32.996Z,28.02
2023-03-06T17:44:01.777Z,28.86
2023-03-06T17:46:29.021Z,27.77
2023-03-06T17:48:56.589Z,27.99
2023-03-06T17:51:26.223Z,28.25
2023-03-06T17:53:53.384Z,28.44
2023-03-06T17:56:23.140Z,28.26
2023-03-06T17:58:50.249Z,28.04
2023-03-06T18:01:21.267Z,27.83
2023-03-06T18:03:51.747Z,28.44
2023-03-06T18:06:22.916Z,28.04
2023-03-06T18:08:52.680Z,28.10
2023-03-06T18:11:20.381Z,28.10
2023-03-06T18:13:47.659Z,27.98
2023-03-06T18:16:18.859Z,28.46
2023-03-06T18:18:47.241Z,28.31
2023-03-06T18:21:16.891Z,28.03
2023-03-06T18:23:44.562Z,28.78
2023-03-06T18:26:28.439Z,28.29
2023-03-06T18:29:01.480Z,29.58
2023-03-06T18:31:38.795Z,29.18
2023-03-06T18:34:13.470Z,30.22
2023-03-06T18:36:43.600Z,29.16
2023-03-06T18:39:14.426Z,28.80
2023-03-06T18:41:42.214Z,29.08
2023-03-06T18:44:09.290Z,29.75
2023-03-06T18:46:40.917Z,29.05
2023-03-06T18:49:08.955Z,29.16
2023-03-06T18:51:36.200Z,29.02
2023-03-06T18:54:05.716Z,29.87
2023-03-06T18:56:33.466Z,29.80
2023-03-06T18:59:08.984Z,30.06
2023-03-06T19:01:37.712Z,29.78
2023-03-06T19:04:05.417Z,28.97
2023-03-06T19:06:32.635Z,28.84
2023-03-06T19:09:01.798Z,29.90
2023-03-06T19:11:28.950Z,30.68
2023-03-06T19:13:56.215Z,30.49
2023-03-06T19:16:27.899Z,30.09
2023-03-06T19:18:57.518Z,30.31
2023-03-06T19:21:27.584Z,29.86
2023-03-06T19:23:56.175Z,30.80
2023-03-06T19:26:24.118Z,31.18
2023-03-06T19:28:52.647Z,30.73
2023-03-06T19:31:26.921Z,31.00
2023-03-06T19:33:56.928Z,30.67
2023-03-06T19:36:33.577Z,31.50
2023-03-06T19:39:07.679Z,30.64
2023-03-06T19:41:35.294Z,32.13
2023-03-06T19:44:06.221Z,30.98
2023-03-06T19:46:34.638Z,31.36
2023-03-06T19:49:05.806Z,32.42
2023-03-06T19:51:33.035Z,30.79
2023-03-06T19:54:00.187Z,31.42
2023-03-06T19:56:30.386Z,32.09
2023-03-06T19:58:57.820Z,32.74
2023-03-06T20:01:27.635Z,31.96
2023-03-06T20:03:59.908Z,31.85
2023-03-06T20:06:33.796Z,31.39
2023-03-06T20:09:07.938Z,31.85
2023-03-06T20:11:35.224Z,32.12
2023-03-06T20:14:05.074Z,31.73
2023-03-06T20:16:34.273Z,31.27
2023-03-06T20:19:02.377Z,32.23
2023-03-06T20:21:33.453Z,31.85
2023-03-06T20:24:02.991Z,31.19
2023-03-06T20:26:31.082Z,31.64
2023-03-06T20:28:59.257Z,31.09
2023-03-06T20:31:30.083Z,31.96
2023-03-06T20:33:59.691Z,30.79
2023-03-06T20:36:36.946Z,29.98
2023-03-06T20:39:11.483Z,30.19
2023-03-06T20:41:39.477Z,30.71
2023-03-06T20:44:09.306Z,30.00
2023-03-06T20:46:36.927Z,29.68
2023-03-06T20:49:04.935Z,30.03
2023-03-06T20:51:39.209Z,30.06
2023-03-06T20:54:13.238Z,29.55
2023-03-06T20:56:43.298Z,29.77
2023-03-06T20:59:14.846Z,30.17
2023-03-06T21:01:46.951Z,30.00
2023-03-06T21:04:15.272Z,29.91
2023-03-06T21:06:46.908Z,29.49
2023-03-06T21:09:16.806Z,30.02
2023-03-06T21:11:44.885Z,29.86
2023-03-06T21:14:15.312Z,29.46
2023-03-06T21:16:43.337Z,29.36
2023-03-06T21:19:11.022Z,29.43
2023-03-06T21:21:38.233Z,29.54
2023-03-06T21:24:05.654Z,29.59
2023-03-06T21:26:36.303Z,29.81
2023-03-06T21:29:06.069Z,30.92
2023-03-06T21:31:34.214Z,30.30
2023-03-06T21:34:04.484Z,30.82
2023-03-06T21:36:31.992Z,30.51
2023-03-06T21:38:59.110Z,30.03
2023-03-06T21:41:30.663Z,31.65
2023-03-06T21:44:03.479Z,30.40
2023-03-06T21:46:33.860Z,29.92
2023-03-06T21:49:04.292Z,29.70
2023-03-06T21:51:32.094Z,29.39
2023-03-06T21:54:02.116Z,29.30
2023-03-06T21:56:29.382Z,29.19
2023-03-06T21:58:58.074Z,30.23
2023-03-06T22:01:31.090Z,29.77
2023-03-06T22:04:00.285Z,29.26
2023-03-06T22:06:30.015Z,28.68
2023-03-06T22:08:59.315Z,29.40
2023-03-06T22:11:36.888Z,29.28
2023-03-06T22:14:05.756Z,30.27
2023-03-06T22:16:33.379Z,29.26
2023-03-06T22:19:00.665Z,30.21
2023-03-06T22:21:27.841Z,29.92
2023-03-06T22:23:57.926Z,29.95
2023-03-06T22:26:29.516Z,30.46
2023-03-06T22:28:57.200Z,29.90
2023-03-06T22:31:28.482Z,30.22
2023-03-06T22:33:58.781Z,30.57
2023-03-06T22:36:30.704Z,30.60
2023-03-06T22:39:00.684Z,31.36
2023-03-06T22:41:28.571Z,30.31
2023-03-06T22:43:57.324Z,30.15
2023-03-06T22:46:25.652Z,29.01
2023-03-06T22:48:52.973Z,29.03
2023-03-06T22:51:21.530Z,28.84
2023-03-06T22:53:49.540Z,29.15
2023-03-06T22:56:21.609Z,29.09
2023-03-06T22:58:48.635Z,29.33
2023-03-06T23:01:25.288Z,30.31
2023-03-06T23:03:58.523Z,30.32
2023-03-06T23:06:35.307Z,30.31
2023-03-06T23:09:03.648Z,30.73
2023-03-06T23:11:30.984Z,30.84
2023-03-06T23:13:59.236Z,30.73
2023-03-06T23:16:26.452Z,31.02
2023-03-06T23:18:54.019Z,30.40
2023-03-06T23:21:26.762Z,30.14
2023-03-06T23:23:54.724Z,29.60
2023-03-06T23:26:29.072Z,30.15
2023-03-06T23:28:57.754Z,30.69
2023-03-06T23:31:29.335Z,31.33
2023-03-06T23:34:06.220Z,30.86
2023-03-06T23:36:33.906Z,29.85
2023-03-06T23:39:01.146Z,28.99
2023-03-06T23:41:28.635Z,29.41
2023-03-06T23:43:56.004Z,29.74
2023-03-06T23:46:23.588Z,29.50
2023-03-06T23:48:50.759Z,28.83
2023-03-06T23:51:21.498Z,28.69
2023-03-06T23:53:59.549Z,29.13
2023-03-06T23:56:28.626Z,29.21
2023-03-06T23:58:55.957Z,28.80
